sensor_id;sensor_type;location;lat;lon;timestamp;pressure;altitude;pressure_sealevel;temperature;humidity
20039;BME280;21737;42.868;25.320;2024-03-29T00:02:13;96673.81;;;9.41;72.27
20039;BME280;21737;42.868;25.320;2024-03-29T00:04:39;96689.00;;;9.51;72.56
20039;BME280;21737;42.868;25.320;2024-03-29T00:07:05;96685.53;;;9.59;72.54
20039;BME280;21737;42.868;25.320;2024-03-29T00:09:31;96675.94;;;9.52;71.03
20039;BME280;21737;42.868;25.320;2024-03-29T00:11:57;96693.28;;;9.44;71.96
20039;BME280;21737;42.868;25.320;2024-03-29T00:14:23;96681.28;;;9.51;71.01
20039;BME280;21737;42.868;25.320;2024-03-29T00:16:49;96690.59;;;9.52;72.51
20039;BME280;21737;42.868;25.320;2024-03-29T00:19:15;96674.69;;;9.63;69.67
20039;BME280;21737;42.868;25.320;2024-03-29T00:21:41;96689.09;;;9.79;69.94
20039;BME280;21737;42.868;25.320;2024-03-29T00:24:07;96690.81;;;9.93;68.49
20039;BME280;21737;42.868;25.320;2024-03-29T00:26:33;96697.28;;;9.82;68.79
20039;BME280;21737;42.868;25.320;2024-03-29T00:28:59;96700.47;;;9.84;68.02
20039;BME280;21737;42.868;25.320;2024-03-29T00:31:25;96699.91;;;9.89;69.18
20039;BME280;21737;42.868;25.320;2024-03-29T00:33:51;96693.03;;;9.96;66.57
20039;BME280;21737;42.868;25.320;2024-03-29T00:36:17;96706.16;;;10.01;67.60
20039;BME280;21737;42.868;25.320;2024-03-29T00:38:43;96708.25;;;9.91;69.19
20039;BME280;21737;42.868;25.320;2024-03-29T00:41:08;96710.41;;;9.87;68.00
20039;BME280;21737;42.868;25.320;2024-03-29T00:43:35;96707.16;;;9.79;68.82
20039;BME280;21737;42.868;25.320;2024-03-29T00:46:01;96705.00;;;9.82;68.37
20039;BME280;21737;42.868;25.320;2024-03-29T00:48:27;96704.06;;;9.69;69.98
20039;BME280;21737;42.868;25.320;2024-03-29T00:50:55;96695.41;;;9.55;69.64
20039;BME280;21737;42.868;25.320;2024-03-29T00:53:21;96697.72;;;9.50;71.60
20039;BME280;21737;42.868;25.320;2024-03-29T00:55:47;96699.53;;;9.35;72.24
20039;BME280;21737;42.868;25.320;2024-03-29T00:58:13;96704.25;;;9.31;72.69
20039;BME280;21737;42.868;25.320;2024-03-29T01:00:39;96693.16;;;9.16;71.79
20039;BME280;21737;42.868;25.320;2024-03-29T01:03:05;96692.16;;;9.17;71.84
20039;BME280;21737;42.868;25.320;2024-03-29T01:05:32;96699.31;;;9.15;72.43
20039;BME280;21737;42.868;25.320;2024-03-29T01:07:58;96695.81;;;9.23;72.09
20039;BME280;21737;42.868;25.320;2024-03-29T01:10:24;96699.31;;;9.15;71.34
20039;BME280;21737;42.868;25.320;2024-03-29T01:12:50;96699.66;;;9.12;73.30
20039;BME280;21737;42.868;25.320;2024-03-29T01:15:17;96698.94;;;9.03;72.61
20039;BME280;21737;42.868;25.320;2024-03-29T01:17:43;96697.97;;;8.90;72.69
20039;BME280;21737;42.868;25.320;2024-03-29T01:20:15;96700.78;;;8.95;72.72
20039;BME280;21737;42.868;25.320;2024-03-29T01:22:41;96712.88;;;8.94;72.69
20039;BME280;21737;42.868;25.320;2024-03-29T01:25:09;96710.66;;;8.91;73.12
20039;BME280;21737;42.868;25.320;2024-03-29T01:27:38;96701.25;;;8.83;73.52
20039;BME280;21737;42.868;25.320;2024-03-29T01:30:05;96709.25;;;8.89;74.02
20039;BME280;21737;42.868;25.320;2024-03-29T01:32:35;96716.25;;;8.80;73.63
20039;BME280;21737;42.868;25.320;2024-03-29T01:35:04;96713.78;;;8.86;72.72
20039;BME280;21737;42.868;25.320;2024-03-29T01:37:30;96722.19;;;8.80;73.29
20039;BME280;21737;42.868;25.320;2024-03-29T01:39:56;96727.00;;;8.83;73.36
20039;BME280;21737;42.868;25.320;2024-03-29T01:42:22;96736.22;;;8.78;73.64
20039;BME280;21737;42.868;25.320;2024-03-29T01:44:49;96726.88;;;8.62;73.59
20039;BME280;21737;42.868;25.320;2024-03-29T01:47:17;96732.78;;;8.48;74.54
20039;BME280;21737;42.868;25.320;2024-03-29T01:49:44;96732.09;;;8.54;74.00
20039;BME280;21737;42.868;25.320;2024-03-29T01:52:14;96727.00;;;8.46;74.27
20039;BME280;21737;42.868;25.320;2024-03-29T01:54:42;96738.91;;;8.47;74.02
20039;BME280;21737;42.868;25.320;2024-03-29T01:57:11;96748.34;;;8.32;74.26
20039;BME280;21737;42.868;25.320;2024-03-29T01:59:38;96750.63;;;8.27;74.37
20039;BME280;21737;42.868;25.320;2024-03-29T02:02:06;96750.25;;;8.15;75.77
20039;BME280;21737;42.868;25.320;2024-03-29T02:04:32;96762.91;;;8.16;75.67
20039;BME280;21737;42.868;25.320;2024-03-29T02:06:58;96763.00;;;8.23;73.72
20039;BME280;21737;42.868;25.320;2024-03-29T02:09:24;96766.34;;;8.55;71.16
20039;BME280;21737;42.868;25.320;2024-03-29T02:11:50;96763.28;;;8.74;69.40
20039;BME280;21737;42.868;25.320;2024-03-29T02:14:18;96769.78;;;8.84;70.65
20039;BME280;21737;42.868;25.320;2024-03-29T02:16:44;96774.19;;;8.76;70.37
20039;BME280;21737;42.868;25.320;2024-03-29T02:19:10;96785.44;;;8.60;72.90
20039;BME280;21737;42.868;25.320;2024-03-29T02:21:37;96786.63;;;8.49;72.58
20039;BME280;21737;42.868;25.320;2024-03-29T02:24:08;96787.88;;;8.39;72.75
20039;BME280;21737;42.868;25.320;2024-03-29T02:26:35;96791.41;;;8.30;73.72
20039;BME280;21737;42.868;25.320;2024-03-29T02:29:08;96805.41;;;8.27;74.32
20039;BME280;21737;42.868;25.320;2024-03-29T02:31:38;96795.34;;;8.17;73.76
20039;BME280;21737;42.868;25.320;2024-03-29T02:34:04;96811.25;;;8.21;73.30
20039;BME280;21737;42.868;25.320;2024-03-29T02:36:32;96815.69;;;8.35;72.54
20039;BME280;21737;42.868;25.320;2024-03-29T02:38:58;96841.63;;;8.17;73.68
20039;BME280;21737;42.868;25.320;2024-03-29T02:41:24;96852.66;;;8.03;73.53
20039;BME280;21737;42.868;25.320;2024-03-29T02:43:51;96854.84;;;7.75;74.86
20039;BME280;21737;42.868;25.320;2024-03-29T02:46:18;96854.28;;;7.65;75.09
20039;BME280;21737;42.868;25.320;2024-03-29T02:48:44;96850.44;;;7.53;75.71
20039;BME280;21737;42.868;25.320;2024-03-29T02:51:10;96861.22;;;7.48;76.19
20039;BME280;21737;42.868;25.320;2024-03-29T02:53:43;96859.97;;;7.28;76.82
20039;BME280;21737;42.868;25.320;2024-03-29T02:56:09;96862.06;;;7.25;77.72
20039;BME280;21737;42.868;25.320;2024-03-29T02:58:35;96873.13;;;7.25;77.02
20039;BME280;21737;42.868;25.320;2024-03-29T03:01:08;96875.69;;;7.25;77.46
20039;BME280;21737;42.868;25.320;2024-03-29T03:03:34;96890.31;;;7.25;77.41
20039;BME280;21737;42.868;25.320;2024-03-29T03:06:02;96895.78;;;7.13;78.01
20039;BME280;21737;42.868;25.320;2024-03-29T03:08:31;96898.50;;;7.12;78.11
20039;BME280;21737;42.868;25.320;2024-03-29T03:11:16;96895.78;;;7.05;78.31
20039;BME280;21737;42.868;25.320;2024-03-29T03:13:43;96898.84;;;7.09;77.92
20039;BME280;21737;42.868;25.320;2024-03-29T03:16:16;96904.44;;;7.04;78.28
20039;BME280;21737;42.868;25.320;2024-03-29T03:18:42;96894.19;;;6.96;78.81
20039;BME280;21737;42.868;25.320;2024-03-29T03:21:08;96906.69;;;6.99;78.05
20039;BME280;21737;42.868;25.320;2024-03-29T03:23:33;96905.53;;;7.34;74.38
20039;BME280;21737;42.868;25.320;2024-03-29T03:26:02;96906.31;;;7.43;75.00
20039;BME280;21737;42.868;25.320;2024-03-29T03:28:32;96912.50;;;7.73;72.72
20039;BME280;21737;42.868;25.320;2024-03-29T03:30:58;96916.53;;;7.75;73.77
20039;BME280;21737;42.868;25.320;2024-03-29T03:33:24;96910.31;;;7.62;75.15
20039;BME280;21737;42.868;25.320;2024-03-29T03:35:50;96929.69;;;7.72;74.59
20039;BME280;21737;42.868;25.320;2024-03-29T03:38:16;96930.50;;;7.73;74.44
20039;BME280;21737;42.868;25.320;2024-03-29T03:40:42;96922.91;;;7.88;70.40
20039;BME280;21737;42.868;25.320;2024-03-29T03:43:09;96921.56;;;8.00;70.04
20039;BME280;21737;42.868;25.320;2024-03-29T03:45:39;96934.91;;;7.95;71.59
20039;BME280;21737;42.868;25.320;2024-03-29T03:48:06;96934.00;;;7.88;72.34
20039;BME280;21737;42.868;25.320;2024-03-29T03:50:40;96937.41;;;7.72;73.10
20039;BME280;21737;42.868;25.320;2024-03-29T03:53:08;96932.56;;;7.77;72.19
20039;BME280;21737;42.868;25.320;2024-03-29T03:55:37;96943.66;;;7.70;70.83
20039;BME280;21737;42.868;25.320;2024-03-29T03:58:04;96941.75;;;7.72;71.40
20039;BME280;21737;42.868;25.320;2024-03-29T04:00:29;96940.44;;;7.76;70.01
20039;BME280;21737;42.868;25.320;2024-03-29T04:02:55;96942.22;;;7.67;71.12
20039;BME280;21737;42.868;25.320;2024-03-29T04:05:23;96954.91;;;7.69;70.46
20039;BME280;21737;42.868;25.320;2024-03-29T04:07:50;96952.50;;;7.67;71.13
20039;BME280;21737;42.868;25.320;2024-03-29T04:10:16;96959.91;;;7.62;71.93
20039;BME280;21737;42.868;25.320;2024-03-29T04:12:42;96966.66;;;7.55;73.15
20039;BME280;21737;42.868;25.320;2024-03-29T04:15:08;96975.19;;;7.39;73.57
20039;BME280;21737;42.868;25.320;2024-03-29T04:17:34;96971.16;;;7.21;74.01
20039;BME280;21737;42.868;25.320;2024-03-29T04:20:00;96980.97;;;7.25;72.51
20039;BME280;21737;42.868;25.320;2024-03-29T04:22:29;96981.94;;;7.32;72.88
20039;BME280;21737;42.868;25.320;2024-03-29T04:24:55;96976.31;;;7.29;73.75
20039;BME280;21737;42.868;25.320;2024-03-29T04:27:21;96972.94;;;7.28;74.06
20039;BME280;21737;42.868;25.320;2024-03-29T04:29:51;96984.50;;;7.32;74.07
20039;BME280;21737;42.868;25.320;2024-03-29T04:32:18;96988.34;;;7.36;72.88
20039;BME280;21737;42.868;25.320;2024-03-29T04:34:50;96981.28;;;7.46;70.46
20039;BME280;21737;42.868;25.320;2024-03-29T04:37:17;97001.16;;;7.69;70.76
20039;BME280;21737;42.868;25.320;2024-03-29T04:39:43;96998.47;;;7.54;71.49
20039;BME280;21737;42.868;25.320;2024-03-29T04:42:10;97016.13;;;7.65;71.19
20039;BME280;21737;42.868;25.320;2024-03-29T04:44:37;97015.94;;;7.75;71.00
20039;BME280;21737;42.868;25.320;2024-03-29T04:47:03;97020.91;;;7.84;70.37
20039;BME280;21737;42.868;25.320;2024-03-29T04:49:29;97020.09;;;7.84;70.72
20039;BME280;21737;42.868;25.320;2024-03-29T04:52:05;97022.50;;;7.85;71.85
20039;BME280;21737;42.868;25.320;2024-03-29T04:54:33;97019.31;;;7.59;72.51
20039;BME280;21737;42.868;25.320;2024-03-29T04:57:02;97019.78;;;7.71;72.67
20039;BME280;21737;42.868;25.320;2024-03-29T04:59:29;97028.25;;;7.96;71.89
20039;BME280;21737;42.868;25.320;2024-03-29T05:01:55;97041.75;;;8.06;70.64
20039;BME280;21737;42.868;25.320;2024-03-29T05:04:23;97038.69;;;8.10;69.06
20039;BME280;21737;42.868;25.320;2024-03-29T05:07:00;97051.19;;;8.22;69.73
20039;BME280;21737;42.868;25.320;2024-03-29T05:09:26;97051.19;;;8.38;68.63
20039;BME280;21737;42.868;25.320;2024-03-29T05:11:54;97045.41;;;8.36;68.70
20039;BME280;21737;42.868;25.320;2024-03-29T05:14:21;97043.25;;;8.47;67.67
20039;BME280;21737;42.868;25.320;2024-03-29T05:16:48;97044.84;;;8.57;66.35
20039;BME280;21737;42.868;25.320;2024-03-29T05:19:15;97051.19;;;8.69;65.01
20039;BME280;21737;42.868;25.320;2024-03-29T05:21:41;97054.25;;;8.72;65.93
20039;BME280;21737;42.868;25.320;2024-03-29T05:24:08;97051.94;;;8.85;64.95
20039;BME280;21737;42.868;25.320;2024-03-29T05:26:33;97054.59;;;9.00;64.23
20039;BME280;21737;42.868;25.320;2024-03-29T05:29:00;97065.41;;;9.18;64.00
20039;BME280;21737;42.868;25.320;2024-03-29T05:31:26;97075.38;;;9.21;63.18
20039;BME280;21737;42.868;25.320;2024-03-29T05:33:52;97064.63;;;9.18;64.32
20039;BME280;21737;42.868;25.320;2024-03-29T05:36:19;97072.31;;;9.26;63.47
20039;BME280;21737;42.868;25.320;2024-03-29T05:38:45;97081.28;;;9.30;62.79
20039;BME280;21737;42.868;25.320;2024-03-29T05:41:11;97077.72;;;9.39;62.81
20039;BME280;21737;42.868;25.320;2024-03-29T05:43:38;97070.69;;;9.48;62.15
20039;BME280;21737;42.868;25.320;2024-03-29T05:46:05;97077.63;;;9.47;64.07
20039;BME280;21737;42.868;25.320;2024-03-29T05:48:31;97088.00;;;9.62;63.42
20039;BME280;21737;42.868;25.320;2024-03-29T05:50:57;97087.94;;;9.70;63.29
20039;BME280;21737;42.868;25.320;2024-03-29T05:53:23;97083.34;;;9.80;62.08
20039;BME280;21737;42.868;25.320;2024-03-29T05:55:55;97094.81;;;9.93;63.04
20039;BME280;21737;42.868;25.320;2024-03-29T05:58:21;97089.44;;;10.02;60.61
20039;BME280;21737;42.868;25.320;2024-03-29T06:00:48;97097.50;;;10.22;61.52
20039;BME280;21737;42.868;25.320;2024-03-29T06:03:14;97099.56;;;10.27;62.23
20039;BME280;21737;42.868;25.320;2024-03-29T06:05:40;97086.75;;;10.33;61.22
20039;BME280;21737;42.868;25.320;2024-03-29T06:08:21;97102.31;;;10.40;61.29
20039;BME280;21737;42.868;25.320;2024-03-29T06:10:51;97101.72;;;10.52;61.51
20039;BME280;21737;42.868;25.320;2024-03-29T06:13:20;97103.22;;;10.62;60.38
20039;BME280;21737;42.868;25.320;2024-03-29T06:16:15;97116.28;;;10.75;60.40
20039;BME280;21737;42.868;25.320;2024-03-29T06:19:00;97116.47;;;10.88;60.75
20039;BME280;21737;42.868;25.320;2024-03-29T06:24:36;97118.97;;;11.32;59.83
20039;BME280;21737;42.868;25.320;2024-03-29T06:27:03;97113.06;;;12.23;57.53
20039;BME280;21737;42.868;25.320;2024-03-29T06:29:31;97125.38;;;13.25;54.30
20039;BME280;21737;42.868;25.320;2024-03-29T06:32:04;97125.91;;;13.94;52.03
20039;BME280;21737;42.868;25.320;2024-03-29T06:34:33;97129.84;;;15.34;48.45
20039;BME280;21737;42.868;25.320;2024-03-29T06:37:01;97123.59;;;16.54;45.32
20039;BME280;21737;42.868;25.320;2024-03-29T06:39:27;97123.84;;;19.02;38.78
20039;BME280;21737;42.868;25.320;2024-03-29T06:41:53;97130.56;;;20.46;35.30
20039;BME280;21737;42.868;25.320;2024-03-29T06:44:19;97133.31;;;20.56;36.02
20039;BME280;21737;42.868;25.320;2024-03-29T06:46:50;97142.69;;;20.18;35.89
20039;BME280;21737;42.868;25.320;2024-03-29T06:49:17;97140.72;;;21.41;34.13
20039;BME280;21737;42.868;25.320;2024-03-29T06:51:44;97140.72;;;24.39;29.08
20039;BME280;21737;42.868;25.320;2024-03-29T06:54:12;97150.19;;;26.24;25.93
20039;BME280;21737;42.868;25.320;2024-03-29T06:56:38;97146.34;;;26.98;24.23
20039;BME280;21737;42.868;25.320;2024-03-29T06:59:14;97156.25;;;22.65;29.47
20039;BME280;21737;42.868;25.320;2024-03-29T07:01:40;97145.63;;;21.86;29.15
20039;BME280;21737;42.868;25.320;2024-03-29T07:04:06;97148.81;;;22.57;28.83
20039;BME280;21737;42.868;25.320;2024-03-29T07:06:32;97140.78;;;23.31;26.54
20039;BME280;21737;42.868;25.320;2024-03-29T07:08:58;97151.47;;;22.57;26.63
20039;BME280;21737;42.868;25.320;2024-03-29T07:11:26;97158.84;;;26.00;22.88
20039;BME280;21737;42.868;25.320;2024-03-29T07:13:52;97160.81;;;26.82;20.33
20039;BME280;21737;42.868;25.320;2024-03-29T07:16:19;97166.03;;;26.29;20.34
20039;BME280;21737;42.868;25.320;2024-03-29T07:18:45;97162.59;;;26.62;19.90
20039;BME280;21737;42.868;25.320;2024-03-29T07:21:11;97160.38;;;25.13;21.81
20039;BME280;21737;42.868;25.320;2024-03-29T07:23:37;97161.53;;;28.61;19.39
20039;BME280;21737;42.868;25.320;2024-03-29T07:26:06;97171.94;;;27.31;19.74
20039;BME280;21737;42.868;25.320;2024-03-29T07:28:33;97162.09;;;26.84;19.70
20039;BME280;21737;42.868;25.320;2024-03-29T07:31:05;97183.38;;;26.74;21.27
20039;BME280;21737;42.868;25.320;2024-03-29T07:33:32;97188.28;;;26.33;20.33
20039;BME280;21737;42.868;25.320;2024-03-29T07:35:58;97178.00;;;25.28;22.29
20039;BME280;21737;42.868;25.320;2024-03-29T07:38:24;97184.50;;;24.61;22.88
20039;BME280;21737;42.868;25.320;2024-03-29T07:40:51;97184.47;;;25.61;21.92
20039;BME280;21737;42.868;25.320;2024-03-29T07:43:19;97191.00;;;26.23;21.35
20039;BME280;21737;42.868;25.320;2024-03-29T07:45:45;97193.06;;;25.92;21.19
20039;BME280;21737;42.868;25.320;2024-03-29T07:48:14;97203.88;;;26.68;20.42
20039;BME280;21737;42.868;25.320;2024-03-29T07:50:41;97205.09;;;26.76;20.79
20039;BME280;21737;42.868;25.320;2024-03-29T07:53:08;97198.06;;;26.27;21.06
20039;BME280;21737;42.868;25.320;2024-03-29T07:55:37;97189.09;;;26.86;20.41
20039;BME280;21737;42.868;25.320;2024-03-29T07:58:03;97198.63;;;27.16;20.65
20039;BME280;21737;42.868;25.320;2024-03-29T08:00:33;97203.50;;;26.12;21.17
20039;BME280;21737;42.868;25.320;2024-03-29T08:02:59;97200.53;;;28.33;19.55
20039;BME280;21737;42.868;25.320;2024-03-29T08:05:27;97197.03;;;27.63;19.29
20039;BME280;21737;42.868;25.320;2024-03-29T08:07:53;97189.22;;;27.90;19.24
20039;BME280;21737;42.868;25.320;2024-03-29T08:10:20;97196.59;;;27.74;19.53
20039;BME280;21737;42.868;25.320;2024-03-29T08:12:48;97193.72;;;27.90;18.21
20039;BME280;21737;42.868;25.320;2024-03-29T08:15:14;97205.13;;;27.90;19.08
20039;BME280;21737;42.868;25.320;2024-03-29T08:17:40;97198.31;;;27.65;19.09
20039;BME280;21737;42.868;25.320;2024-03-29T08:20:06;97192.00;;;27.61;19.62
20039;BME280;21737;42.868;25.320;2024-03-29T08:22:33;97191.81;;;29.06;17.67
20039;BME280;21737;42.868;25.320;2024-03-29T08:24:59;97198.06;;;27.19;19.73
20039;BME280;21737;42.868;25.320;2024-03-29T08:27:29;97193.72;;;27.90;19.37
20039;BME280;21737;42.868;25.320;2024-03-29T08:29:55;97189.69;;;28.76;18.34
20039;BME280;21737;42.868;25.320;2024-03-29T08:32:21;97188.47;;;28.41;18.53
20039;BME280;21737;42.868;25.320;2024-03-29T08:34:47;97198.81;;;30.07;17.42
20039;BME280;21737;42.868;25.320;2024-03-29T08:37:19;97202.84;;;28.54;18.83
20039;BME280;21737;42.868;25.320;2024-03-29T08:39:46;97197.72;;;28.06;19.19
20039;BME280;21737;42.868;25.320;2024-03-29T08:42:13;97196.06;;;28.29;18.85
20039;BME280;21737;42.868;25.320;2024-03-29T08:44:39;97191.97;;;28.69;18.32
20039;BME280;21737;42.868;25.320;2024-03-29T08:47:06;97202.19;;;27.92;19.01
20039;BME280;21737;42.868;25.320;2024-03-29T08:49:31;97193.03;;;27.41;19.35
20039;BME280;21737;42.868;25.320;2024-03-29T08:52:00;97200.00;;;27.56;19.50
20039;BME280;21737;42.868;25.320;2024-03-29T08:54:31;97190.41;;;26.89;19.59
20039;BME280;21737;42.868;25.320;2024-03-29T08:56:57;97192.22;;;27.65;18.90
20039;BME280;21737;42.868;25.320;2024-03-29T08:59:29;97177.75;;;27.52;18.45
20039;BME280;21737;42.868;25.320;2024-03-29T09:02:04;97178.34;;;28.24;17.39
20039;BME280;21737;42.868;25.320;2024-03-29T09:04:32;97185.69;;;27.95;18.18
20039;BME280;21737;42.868;25.320;2024-03-29T09:07:02;97178.16;;;28.02;17.87
20039;BME280;21737;42.868;25.320;2024-03-29T09:09:31;97181.72;;;28.11;18.67
20039;BME280;21737;42.868;25.320;2024-03-29T09:11:59;97169.38;;;28.85;17.07
20039;BME280;21737;42.868;25.320;2024-03-29T09:14:27;97168.94;;;28.64;17.67
20039;BME280;21737;42.868;25.320;2024-03-29T09:16:54;97160.63;;;28.38;17.46
20039;BME280;21737;42.868;25.320;2024-03-29T09:19:20;97154.66;;;28.60;16.93
20039;BME280;21737;42.868;25.320;2024-03-29T09:21:47;97139.25;;;29.17;16.89
20039;BME280;21737;42.868;25.320;2024-03-29T09:24:13;97156.06;;;27.88;17.96
20039;BME280;21737;42.868;25.320;2024-03-29T09:26:41;97151.78;;;28.57;18.36
20039;BME280;21737;42.868;25.320;2024-03-29T09:29:07;97146.75;;;28.55;16.75
20039;BME280;21737;42.868;25.320;2024-03-29T09:31:32;97159.38;;;27.61;18.16
20039;BME280;21737;42.868;25.320;2024-03-29T09:33:58;97159.72;;;28.10;17.00
20039;BME280;21737;42.868;25.320;2024-03-29T09:36:25;97153.16;;;28.40;16.52
20039;BME280;21737;42.868;25.320;2024-03-29T09:38:52;97155.59;;;27.67;16.67
20039;BME280;21737;42.868;25.320;2024-03-29T09:41:19;97146.22;;;27.08;18.34
20039;BME280;21737;42.868;25.320;2024-03-29T09:43:47;97152.78;;;27.96;17.19
20039;BME280;21737;42.868;25.320;2024-03-29T09:46:14;97142.72;;;27.74;17.47
20039;BME280;21737;42.868;25.320;2024-03-29T09:48:42;97142.69;;;28.11;17.84
20039;BME280;21737;42.868;25.320;2024-03-29T09:51:09;97129.75;;;26.29;18.54
20039;BME280;21737;42.868;25.320;2024-03-29T09:53:37;97111.75;;;25.09;19.93
20039;BME280;21737;42.868;25.320;2024-03-29T09:56:07;97111.59;;;25.45;19.47
20039;BME280;21737;42.868;25.320;2024-03-29T09:58:34;97111.72;;;24.24;21.05
20039;BME280;21737;42.868;25.320;2024-03-29T10:01:06;97107.19;;;23.94;21.81
20039;BME280;21737;42.868;25.320;2024-03-29T10:03:38;97101.91;;;23.64;21.32
20039;BME280;21737;42.868;25.320;2024-03-29T10:06:05;97101.94;;;23.74;22.35
20039;BME280;21737;42.868;25.320;2024-03-29T10:08:34;97108.75;;;23.60;21.60
20039;BME280;21737;42.868;25.320;2024-03-29T10:11:01;97107.91;;;23.44;22.40
20039;BME280;21737;42.868;25.320;2024-03-29T10:13:27;97113.44;;;23.48;22.66
20039;BME280;21737;42.868;25.320;2024-03-29T10:15:54;97102.38;;;23.51;22.68
20039;BME280;21737;42.868;25.320;2024-03-29T10:18:27;97105.25;;;23.44;21.97
20039;BME280;21737;42.868;25.320;2024-03-29T10:21:05;97105.22;;;23.29;22.03
20039;BME280;21737;42.868;25.320;2024-03-29T10:23:32;97092.78;;;23.09;22.37
20039;BME280;21737;42.868;25.320;2024-03-29T10:25:58;97092.22;;;23.02;22.88
20039;BME280;21737;42.868;25.320;2024-03-29T10:28:31;97087.75;;;23.07;22.48
20039;BME280;21737;42.868;25.320;2024-03-29T10:31:00;97101.69;;;23.03;22.44
20039;BME280;21737;42.868;25.320;2024-03-29T10:33:31;97098.41;;;23.38;22.81
20039;BME280;21737;42.868;25.320;2024-03-29T10:35:59;97088.97;;;23.57;22.42
20039;BME280;21737;42.868;25.320;2024-03-29T10:38:27;97068.88;;;23.36;22.69
20039;BME280;21737;42.868;25.320;2024-03-29T10:40:53;97083.97;;;23.56;22.98
20039;BME280;21737;42.868;25.320;2024-03-29T10:43:20;97085.28;;;23.53;22.60
20039;BME280;21737;42.868;25.320;2024-03-29T10:45:48;97078.91;;;23.44;22.50
20039;BME280;21737;42.868;25.320;2024-03-29T10:48:17;97096.31;;;23.50;22.27
20039;BME280;21737;42.868;25.320;2024-03-29T10:50:48;97077.81;;;23.20;22.92
20039;BME280;21737;42.868;25.320;2024-03-29T10:53:17;97077.56;;;23.31;23.33
20039;BME280;21737;42.868;25.320;2024-03-29T10:55:43;97073.94;;;23.58;21.88
20039;BME280;21737;42.868;25.320;2024-03-29T10:58:11;97074.78;;;23.73;22.35
20039;BME280;21737;42.868;25.320;2024-03-29T11:00:39;97071.06;;;23.64;22.56
20039;BME280;21737;42.868;25.320;2024-03-29T11:03:44;97078.63;;;23.40;22.42
20039;BME280;21737;42.868;25.320;2024-03-29T11:06:12;97059.69;;;23.49;22.71
20039;BME280;21737;42.868;25.320;2024-03-29T11:08:40;97064.91;;;23.33;22.53
20039;BME280;21737;42.868;25.320;2024-03-29T11:11:12;97080.72;;;23.23;22.73
20039;BME280;21737;42.868;25.320;2024-03-29T11:14:00;97075.41;;;23.13;23.07
20039;BME280;21737;42.868;25.320;2024-03-29T11:16:29;97055.88;;;22.94;22.76
20039;BME280;21737;42.868;25.320;2024-03-29T11:18:55;97066.13;;;22.90;23.15
20039;BME280;21737;42.868;25.320;2024-03-29T11:21:22;97057.00;;;23.23;23.74
20039;BME280;21737;42.868;25.320;2024-03-29T11:23:52;97049.88;;;23.19;24.25
20039;BME280;21737;42.868;25.320;2024-03-29T11:26:18;97051.69;;;23.08;23.84
20039;BME280;21737;42.868;25.320;2024-03-29T11:28:52;97062.50;;;23.12;23.60
20039;BME280;21737;42.868;25.320;2024-03-29T11:31:21;97061.75;;;23.31;22.87
20039;BME280;21737;42.868;25.320;2024-03-29T11:33:48;97059.13;;;23.31;22.55
20039;BME280;21737;42.868;25.320;2024-03-29T11:36:22;97051.75;;;23.23;22.82
20039;BME280;21737;42.868;25.320;2024-03-29T11:38:58;97040.63;;;23.01;23.19
20039;BME280;21737;42.868;25.320;2024-03-29T11:41:27;97035.84;;;22.88;23.22
20039;BME280;21737;42.868;25.320;2024-03-29T11:43:55;97044.81;;;23.02;23.66
20039;BME280;21737;42.868;25.320;2024-03-29T11:46:23;97038.59;;;23.38;23.21
20039;BME280;21737;42.868;25.320;2024-03-29T11:48:50;97034.69;;;23.56;23.11
20039;BME280;21737;42.868;25.320;2024-03-29T11:51:19;97029.66;;;23.55;22.76
20039;BME280;21737;42.868;25.320;2024-03-29T11:53:48;97040.22;;;23.80;23.16
20039;BME280;21737;42.868;25.320;2024-03-29T11:56:17;97045.47;;;23.60;22.53
20039;BME280;21737;42.868;25.320;2024-03-29T11:58:44;97030.13;;;23.26;22.90
20039;BME280;21737;42.868;25.320;2024-03-29T12:01:10;97026.44;;;23.27;22.60
20039;BME280;21737;42.868;25.320;2024-03-29T12:03:42;97025.72;;;23.52;23.08
20039;BME280;21737;42.868;25.320;2024-03-29T12:06:08;97035.41;;;23.31;22.53
20039;BME280;21737;42.868;25.320;2024-03-29T12:08:38;97020.41;;;23.22;22.62
20039;BME280;21737;42.868;25.320;2024-03-29T12:11:05;97030.13;;;23.21;22.64
20039;BME280;21737;42.868;25.320;2024-03-29T12:13:31;97023.28;;;23.30;23.37
20039;BME280;21737;42.868;25.320;2024-03-29T12:15:58;97029.91;;;23.48;23.71
20039;BME280;21737;42.868;25.320;2024-03-29T12:18:25;97043.09;;;23.48;22.76
20039;BME280;21737;42.868;25.320;2024-03-29T12:20:52;97038.88;;;23.52;22.85
20039;BME280;21737;42.868;25.320;2024-03-29T12:23:21;97034.44;;;23.68;22.92
20039;BME280;21737;42.868;25.320;2024-03-29T12:25:49;97033.63;;;23.67;22.72
20039;BME280;21737;42.868;25.320;2024-03-29T12:28:16;97024.16;;;23.66;22.25
20039;BME280;21737;42.868;25.320;2024-03-29T12:30:47;97028.34;;;23.83;22.82
20039;BME280;21737;42.868;25.320;2024-03-29T12:33:17;97027.56;;;23.82;22.81
20039;BME280;21737;42.868;25.320;2024-03-29T12:35:49;97018.88;;;23.66;23.37
20039;BME280;21737;42.868;25.320;2024-03-29T12:38:24;97010.44;;;23.64;22.26
20039;BME280;21737;42.868;25.320;2024-03-29T12:40:51;97011.75;;;23.67;22.41
20039;BME280;21737;42.868;25.320;2024-03-29T12:43:28;97005.97;;;23.70;22.61
20039;BME280;21737;42.868;25.320;2024-03-29T12:45:55;97015.69;;;23.49;22.20
20039;BME280;21737;42.868;25.320;2024-03-29T12:48:22;97008.59;;;23.70;22.46
20039;BME280;21737;42.868;25.320;2024-03-29T12:50:49;97002.25;;;23.61;22.74
20039;BME280;21737;42.868;25.320;2024-03-29T12:53:16;97008.06;;;23.63;22.53
20039;BME280;21737;42.868;25.320;2024-03-29T12:55:46;96998.03;;;23.60;22.79
20039;BME280;21737;42.868;25.320;2024-03-29T12:58:14;96999.38;;;23.67;22.50
20039;BME280;21737;42.868;25.320;2024-03-29T13:00:41;97009.38;;;23.81;22.15
20039;BME280;21737;42.868;25.320;2024-03-29T13:03:07;97010.41;;;23.90;22.60